Kings Bay, Georgia
Current Conditions -  °F | °C
As of 12:35 AM on Thursday 27 Nov 2014 (Local Time) from KFHB Reporting Station
Clear Clear  
Wind Chill: 52°   Ceiling: Unl
Heat Index: 52°   Visibility: 10mi
Dew Point: 39°   Wind: 7mph
Humidity: 62%   Direction: 260°W
Pressure: 30.18"   Gusts: NA
Location:  30.77°N, 81.68°W
Report Text: KFHB 270535Z AUTO 26006KT 10SM CLR 11/04 A3018 RMK AO1
Loading
Personal Weather Stations






























Interactive Weather Map New forecast layout! Learn more

10-Day Weather Forecast

Advertisements
Track Severe Weather on mobile